sensor_id;sensor_type;location;lat;lon;timestamp;P1;durP1;ratioP1;P2;durP2;ratioP2
59830;SDS011;45711;50.108;13.712;2022-12-16T00:02:01;102.95;;;34.60;;
59830;SDS011;45711;50.108;13.712;2022-12-16T00:04:26;93.82;;;33.00;;
59830;SDS011;45711;50.108;13.712;2022-12-16T00:06:53;92.00;;;34.30;;
59830;SDS011;45711;50.108;13.712;2022-12-16T00:09:19;97.15;;;34.17;;
59830;SDS011;45711;50.108;13.712;2022-12-16T00:11:44;91.45;;;33.85;;
59830;SDS011;45711;50.108;13.712;2022-12-16T00:14:10;87.55;;;34.10;;
59830;SDS011;45711;50.108;13.712;2022-12-16T00:16:36;89.13;;;33.72;;
59830;SDS011;45711;50.108;13.712;2022-12-16T00:19:01;82.63;;;32.30;;
59830;SDS011;45711;50.108;13.712;2022-12-16T00:21:27;78.85;;;30.90;;
59830;SDS011;45711;50.108;13.712;2022-12-16T00:23:55;81.22;;;31.15;;
59830;SDS011;45711;50.108;13.712;2022-12-16T00:26:21;83.25;;;32.08;;
59830;SDS011;45711;50.108;13.712;2022-12-16T00:28:47;86.47;;;33.28;;
59830;SDS011;45711;50.108;13.712;2022-12-16T00:31:12;82.20;;;31.08;;
59830;SDS011;45711;50.108;13.712;2022-12-16T00:33:38;85.53;;;32.08;;
59830;SDS011;45711;50.108;13.712;2022-12-16T00:36:04;87.13;;;31.08;;
59830;SDS011;45711;50.108;13.712;2022-12-16T00:38:30;81.03;;;31.35;;
59830;SDS011;45711;50.108;13.712;2022-12-16T00:40:57;79.22;;;31.23;;
59830;SDS011;45711;50.108;13.712;2022-12-16T00:43:22;82.85;;;31.17;;
59830;SDS011;45711;50.108;13.712;2022-12-16T00:45:48;85.55;;;29.80;;
59830;SDS011;45711;50.108;13.712;2022-12-16T00:48:14;80.60;;;30.98;;
59830;SDS011;45711;50.108;13.712;2022-12-16T00:50:42;77.95;;;30.83;;
59830;SDS011;45711;50.108;13.712;2022-12-16T00:53:10;78.47;;;29.58;;
59830;SDS011;45711;50.108;13.712;2022-12-16T00:55:35;79.53;;;30.00;;
59830;SDS011;45711;50.108;13.712;2022-12-16T00:58:02;76.00;;;29.30;;
59830;SDS011;45711;50.108;13.712;2022-12-16T01:00:30;85.80;;;31.40;;
59830;SDS011;45711;50.108;13.712;2022-12-16T01:03:36;81.22;;;31.85;;
59830;SDS011;45711;50.108;13.712;2022-12-16T01:06:29;72.25;;;29.42;;
59830;SDS011;45711;50.108;13.712;2022-12-16T01:08:54;81.63;;;31.20;;
59830;SDS011;45711;50.108;13.712;2022-12-16T01:11:20;87.05;;;30.60;;
59830;SDS011;45711;50.108;13.712;2022-12-16T01:13:48;79.63;;;29.38;;
59830;SDS011;45711;50.108;13.712;2022-12-16T01:16:15;78.50;;;30.13;;
59830;SDS011;45711;50.108;13.712;2022-12-16T01:18:41;80.88;;;29.65;;
59830;SDS011;45711;50.108;13.712;2022-12-16T01:21:07;77.82;;;30.17;;
59830;SDS011;45711;50.108;13.712;2022-12-16T01:23:36;71.38;;;29.38;;
59830;SDS011;45711;50.108;13.712;2022-12-16T01:26:01;86.03;;;30.75;;
59830;SDS011;45711;50.108;13.712;2022-12-16T01:28:27;79.03;;;28.52;;
59830;SDS011;45711;50.108;13.712;2022-12-16T01:30:58;80.82;;;31.40;;
59830;SDS011;45711;50.108;13.712;2022-12-16T01:33:28;76.45;;;29.95;;
59830;SDS011;45711;50.108;13.712;2022-12-16T01:35:57;72.95;;;28.15;;
59830;SDS011;45711;50.108;13.712;2022-12-16T01:38:24;65.80;;;27.13;;
59830;SDS011;45711;50.108;13.712;2022-12-16T01:40:49;65.10;;;26.85;;
59830;SDS011;45711;50.108;13.712;2022-12-16T01:43:15;69.35;;;26.55;;
59830;SDS011;45711;50.108;13.712;2022-12-16T01:45:44;64.43;;;27.08;;
59830;SDS011;45711;50.108;13.712;2022-12-16T01:48:13;74.28;;;27.83;;
59830;SDS011;45711;50.108;13.712;2022-12-16T01:50:45;72.95;;;26.63;;
59830;SDS011;45711;50.108;13.712;2022-12-16T01:53:12;60.90;;;25.27;;
59830;SDS011;45711;50.108;13.712;2022-12-16T01:55:39;68.18;;;27.88;;
59830;SDS011;45711;50.108;13.712;2022-12-16T01:58:08;73.95;;;27.38;;
59830;SDS011;45711;50.108;13.712;2022-12-16T02:00:36;69.38;;;28.42;;
59830;SDS011;45711;50.108;13.712;2022-12-16T02:03:03;72.78;;;28.33;;
59830;SDS011;45711;50.108;13.712;2022-12-16T02:05:31;73.88;;;28.77;;
59830;SDS011;45711;50.108;13.712;2022-12-16T02:07:59;76.20;;;28.05;;
59830;SDS011;45711;50.108;13.712;2022-12-16T02:10:28;69.15;;;28.98;;
59830;SDS011;45711;50.108;13.712;2022-12-16T02:13:04;78.10;;;30.17;;
59830;SDS011;45711;50.108;13.712;2022-12-16T02:15:41;77.13;;;30.13;;
59830;SDS011;45711;50.108;13.712;2022-12-16T02:18:16;80.47;;;30.35;;
59830;SDS011;45711;50.108;13.712;2022-12-16T02:20:57;79.97;;;28.60;;
59830;SDS011;45711;50.108;13.712;2022-12-16T02:23:41;72.30;;;28.58;;
59830;SDS011;45711;50.108;13.712;2022-12-16T02:26:30;65.57;;;27.70;;
59830;SDS011;45711;50.108;13.712;2022-12-16T02:29:19;78.82;;;27.88;;
59830;SDS011;45711;50.108;13.712;2022-12-16T02:31:58;76.10;;;28.85;;
59830;SDS011;45711;50.108;13.712;2022-12-16T02:34:35;74.53;;;28.77;;
59830;SDS011;45711;50.108;13.712;2022-12-16T02:37:12;67.95;;;28.33;;
59830;SDS011;45711;50.108;13.712;2022-12-16T02:39:44;75.65;;;28.77;;
59830;SDS011;45711;50.108;13.712;2022-12-16T02:42:18;75.40;;;30.33;;
59830;SDS011;45711;50.108;13.712;2022-12-16T02:44:52;81.20;;;31.50;;
59830;SDS011;45711;50.108;13.712;2022-12-16T02:47:26;90.55;;;30.85;;
59830;SDS011;45711;50.108;13.712;2022-12-16T02:49:52;77.38;;;29.27;;
59830;SDS011;45711;50.108;13.712;2022-12-16T02:52:20;70.35;;;28.45;;
59830;SDS011;45711;50.108;13.712;2022-12-16T02:54:47;75.85;;;29.63;;
59830;SDS011;45711;50.108;13.712;2022-12-16T02:57:22;83.82;;;31.58;;
59830;SDS011;45711;50.108;13.712;2022-12-16T03:00:11;82.07;;;30.38;;
59830;SDS011;45711;50.108;13.712;2022-12-16T03:02:44;75.55;;;29.33;;
59830;SDS011;45711;50.108;13.712;2022-12-16T03:05:17;70.95;;;28.48;;
59830;SDS011;45711;50.108;13.712;2022-12-16T03:07:45;71.43;;;28.10;;
59830;SDS011;45711;50.108;13.712;2022-12-16T03:10:14;70.10;;;27.83;;
59830;SDS011;45711;50.108;13.712;2022-12-16T03:12:43;70.95;;;28.67;;
59830;SDS011;45711;50.108;13.712;2022-12-16T03:15:11;71.32;;;29.77;;
59830;SDS011;45711;50.108;13.712;2022-12-16T03:17:42;73.88;;;29.20;;
59830;SDS011;45711;50.108;13.712;2022-12-16T03:20:11;74.43;;;29.10;;
59830;SDS011;45711;50.108;13.712;2022-12-16T03:22:40;72.10;;;28.08;;
59830;SDS011;45711;50.108;13.712;2022-12-16T03:25:10;75.68;;;27.73;;
59830;SDS011;45711;50.108;13.712;2022-12-16T03:27:38;69.80;;;26.10;;
59830;SDS011;45711;50.108;13.712;2022-12-16T03:30:11;72.43;;;28.15;;
59830;SDS011;45711;50.108;13.712;2022-12-16T03:32:44;63.50;;;28.55;;
59830;SDS011;45711;50.108;13.712;2022-12-16T03:35:14;72.37;;;28.40;;
59830;SDS011;45711;50.108;13.712;2022-12-16T03:37:45;70.38;;;28.30;;
59830;SDS011;45711;50.108;13.712;2022-12-16T03:40:13;78.45;;;26.92;;
59830;SDS011;45711;50.108;13.712;2022-12-16T03:42:40;68.20;;;28.20;;
59830;SDS011;45711;50.108;13.712;2022-12-16T03:45:10;82.97;;;30.23;;
59830;SDS011;45711;50.108;13.712;2022-12-16T03:47:39;80.55;;;28.45;;
59830;SDS011;45711;50.108;13.712;2022-12-16T03:50:06;64.43;;;27.15;;
59830;SDS011;45711;50.108;13.712;2022-12-16T03:52:33;70.78;;;27.98;;
59830;SDS011;45711;50.108;13.712;2022-12-16T03:54:59;70.20;;;28.33;;
59830;SDS011;45711;50.108;13.712;2022-12-16T03:57:25;68.97;;;27.38;;
59830;SDS011;45711;50.108;13.712;2022-12-16T03:59:51;68.53;;;26.23;;
59830;SDS011;45711;50.108;13.712;2022-12-16T04:02:17;78.35;;;29.92;;
59830;SDS011;45711;50.108;13.712;2022-12-16T04:04:42;78.63;;;29.40;;
59830;SDS011;45711;50.108;13.712;2022-12-16T04:07:09;71.78;;;29.83;;
59830;SDS011;45711;50.108;13.712;2022-12-16T04:09:48;74.75;;;28.27;;
59830;SDS011;45711;50.108;13.712;2022-12-16T04:12:15;71.60;;;28.83;;
59830;SDS011;45711;50.108;13.712;2022-12-16T04:14:59;72.32;;;28.52;;
59830;SDS011;45711;50.108;13.712;2022-12-16T04:17:43;77.25;;;30.00;;
59830;SDS011;45711;50.108;13.712;2022-12-16T04:20:28;68.45;;;28.92;;
59830;SDS011;45711;50.108;13.712;2022-12-16T04:23:16;76.40;;;30.63;;
59830;SDS011;45711;50.108;13.712;2022-12-16T04:26:01;85.47;;;32.80;;
59830;SDS011;45711;50.108;13.712;2022-12-16T04:28:27;84.18;;;33.60;;
59830;SDS011;45711;50.108;13.712;2022-12-16T04:30:52;87.55;;;35.03;;
59830;SDS011;45711;50.108;13.712;2022-12-16T04:33:19;93.15;;;35.03;;
59830;SDS011;45711;50.108;13.712;2022-12-16T04:36:04;99.85;;;35.35;;
59830;SDS011;45711;50.108;13.712;2022-12-16T04:38:50;99.03;;;36.78;;
59830;SDS011;45711;50.108;13.712;2022-12-16T04:41:34;98.13;;;35.95;;
59830;SDS011;45711;50.108;13.712;2022-12-16T04:44:18;114.72;;;37.08;;
59830;SDS011;45711;50.108;13.712;2022-12-16T04:47:01;109.60;;;37.75;;
59830;SDS011;45711;50.108;13.712;2022-12-16T04:49:45;107.30;;;37.05;;
59830;SDS011;45711;50.108;13.712;2022-12-16T04:52:29;141.35;;;43.85;;
59830;SDS011;45711;50.108;13.712;2022-12-16T04:55:15;107.97;;;38.35;;
59830;SDS011;45711;50.108;13.712;2022-12-16T04:58:00;94.80;;;37.58;;
59830;SDS011;45711;50.108;13.712;2022-12-16T05:00:45;97.43;;;34.10;;
59830;SDS011;45711;50.108;13.712;2022-12-16T05:03:30;88.93;;;33.50;;
59830;SDS011;45711;50.108;13.712;2022-12-16T05:06:15;76.78;;;30.83;;
59830;SDS011;45711;50.108;13.712;2022-12-16T05:08:59;84.60;;;31.77;;
59830;SDS011;45711;50.108;13.712;2022-12-16T05:11:44;85.35;;;30.75;;
59830;SDS011;45711;50.108;13.712;2022-12-16T05:14:29;75.50;;;28.33;;
59830;SDS011;45711;50.108;13.712;2022-12-16T05:17:12;68.05;;;28.25;;
59830;SDS011;45711;50.108;13.712;2022-12-16T05:19:57;79.75;;;28.80;;
59830;SDS011;45711;50.108;13.712;2022-12-16T05:22:41;73.47;;;27.52;;
59830;SDS011;45711;50.108;13.712;2022-12-16T05:25:25;69.43;;;25.10;;
59830;SDS011;45711;50.108;13.712;2022-12-16T05:28:11;65.85;;;25.50;;
59830;SDS011;45711;50.108;13.712;2022-12-16T05:30:55;70.53;;;27.63;;
59830;SDS011;45711;50.108;13.712;2022-12-16T05:33:39;75.35;;;27.40;;
59830;SDS011;45711;50.108;13.712;2022-12-16T05:36:23;81.10;;;29.67;;
59830;SDS011;45711;50.108;13.712;2022-12-16T05:39:07;82.45;;;29.08;;
59830;SDS011;45711;50.108;13.712;2022-12-16T05:41:52;81.10;;;30.20;;
59830;SDS011;45711;50.108;13.712;2022-12-16T05:44:38;77.47;;;30.65;;
59830;SDS011;45711;50.108;13.712;2022-12-16T05:47:22;78.35;;;29.35;;
59830;SDS011;45711;50.108;13.712;2022-12-16T05:50:06;85.93;;;31.27;;
59830;SDS011;45711;50.108;13.712;2022-12-16T05:52:51;73.55;;;29.58;;
59830;SDS011;45711;50.108;13.712;2022-12-16T05:55:36;86.78;;;31.17;;
59830;SDS011;45711;50.108;13.712;2022-12-16T05:58:21;74.28;;;29.35;;
59830;SDS011;45711;50.108;13.712;2022-12-16T06:01:06;83.03;;;29.92;;
59830;SDS011;45711;50.108;13.712;2022-12-16T06:03:51;85.40;;;30.67;;
59830;SDS011;45711;50.108;13.712;2022-12-16T06:06:35;78.00;;;31.23;;
59830;SDS011;45711;50.108;13.712;2022-12-16T06:09:19;77.45;;;30.75;;
59830;SDS011;45711;50.108;13.712;2022-12-16T06:12:03;85.20;;;31.13;;
59830;SDS011;45711;50.108;13.712;2022-12-16T06:14:48;89.63;;;32.85;;
59830;SDS011;45711;50.108;13.712;2022-12-16T06:17:33;86.93;;;32.25;;
59830;SDS011;45711;50.108;13.712;2022-12-16T06:20:18;81.72;;;31.67;;
59830;SDS011;45711;50.108;13.712;2022-12-16T06:23:02;85.75;;;33.10;;
59830;SDS011;45711;50.108;13.712;2022-12-16T06:25:46;84.47;;;31.48;;
59830;SDS011;45711;50.108;13.712;2022-12-16T06:28:30;96.28;;;31.17;;
59830;SDS011;45711;50.108;13.712;2022-12-16T06:31:14;82.50;;;31.92;;
59830;SDS011;45711;50.108;13.712;2022-12-16T06:34:01;82.38;;;31.08;;
59830;SDS011;45711;50.108;13.712;2022-12-16T06:36:46;90.90;;;32.20;;
59830;SDS011;45711;50.108;13.712;2022-12-16T06:39:30;81.28;;;31.42;;
59830;SDS011;45711;50.108;13.712;2022-12-16T06:42:14;80.97;;;32.60;;
59830;SDS011;45711;50.108;13.712;2022-12-16T06:44:58;79.18;;;31.63;;
59830;SDS011;45711;50.108;13.712;2022-12-16T06:47:42;76.70;;;30.35;;
59830;SDS011;45711;50.108;13.712;2022-12-16T06:50:28;84.90;;;31.63;;
59830;SDS011;45711;50.108;13.712;2022-12-16T06:53:12;82.32;;;31.65;;
59830;SDS011;45711;50.108;13.712;2022-12-16T06:55:57;86.90;;;33.15;;
59830;SDS011;45711;50.108;13.712;2022-12-16T06:58:41;86.90;;;32.55;;
59830;SDS011;45711;50.108;13.712;2022-12-16T07:01:25;80.45;;;31.73;;
59830;SDS011;45711;50.108;13.712;2022-12-16T07:06:55;83.33;;;30.03;;
59830;SDS011;45711;50.108;13.712;2022-12-16T07:09:39;88.97;;;33.10;;
59830;SDS011;45711;50.108;13.712;2022-12-16T07:12:23;144.10;;;45.17;;
59830;SDS011;45711;50.108;13.712;2022-12-16T07:15:08;153.35;;;51.65;;
59830;SDS011;45711;50.108;13.712;2022-12-16T07:17:52;136.65;;;45.38;;
59830;SDS011;45711;50.108;13.712;2022-12-16T07:20:36;103.28;;;35.78;;
59830;SDS011;45711;50.108;13.712;2022-12-16T07:23:22;91.93;;;32.72;;
59830;SDS011;45711;50.108;13.712;2022-12-16T07:26:06;79.20;;;31.63;;
59830;SDS011;45711;50.108;13.712;2022-12-16T07:28:50;91.53;;;34.25;;
59830;SDS011;45711;50.108;13.712;2022-12-16T07:31:34;84.97;;;32.38;;
59830;SDS011;45711;50.108;13.712;2022-12-16T07:34:18;92.00;;;32.42;;
59830;SDS011;45711;50.108;13.712;2022-12-16T07:37:03;88.78;;;33.75;;
59830;SDS011;45711;50.108;13.712;2022-12-16T07:39:48;80.60;;;31.23;;
59830;SDS011;45711;50.108;13.712;2022-12-16T07:42:32;99.47;;;34.30;;
59830;SDS011;45711;50.108;13.712;2022-12-16T07:45:16;97.43;;;32.97;;
59830;SDS011;45711;50.108;13.712;2022-12-16T07:48:00;86.22;;;33.20;;
59830;SDS011;45711;50.108;13.712;2022-12-16T07:50:44;86.15;;;33.28;;
59830;SDS011;45711;50.108;13.712;2022-12-16T07:53:28;89.60;;;32.83;;
59830;SDS011;45711;50.108;13.712;2022-12-16T07:56:13;83.45;;;32.58;;
59830;SDS011;45711;50.108;13.712;2022-12-16T07:58:58;84.97;;;32.10;;
59830;SDS011;45711;50.108;13.712;2022-12-16T08:01:42;80.57;;;31.35;;
59830;SDS011;45711;50.108;13.712;2022-12-16T08:04:26;98.13;;;32.53;;
59830;SDS011;45711;50.108;13.712;2022-12-16T08:07:10;90.07;;;33.15;;
59830;SDS011;45711;50.108;13.712;2022-12-16T08:09:54;88.57;;;33.92;;
59830;SDS011;45711;50.108;13.712;2022-12-16T08:12:39;88.63;;;32.53;;
59830;SDS011;45711;50.108;13.712;2022-12-16T08:15:24;80.38;;;33.25;;
59830;SDS011;45711;50.108;13.712;2022-12-16T08:18:07;82.00;;;32.03;;
59830;SDS011;45711;50.108;13.712;2022-12-16T08:20:52;82.38;;;32.95;;
59830;SDS011;45711;50.108;13.712;2022-12-16T08:23:36;86.35;;;32.75;;
59830;SDS011;45711;50.108;13.712;2022-12-16T08:26:20;76.93;;;32.15;;
59830;SDS011;45711;50.108;13.712;2022-12-16T08:29:05;86.47;;;33.13;;
59830;SDS011;45711;50.108;13.712;2022-12-16T08:31:49;85.70;;;32.75;;
59830;SDS011;45711;50.108;13.712;2022-12-16T08:34:33;96.00;;;34.05;;
59830;SDS011;45711;50.108;13.712;2022-12-16T08:37:17;84.00;;;32.85;;
59830;SDS011;45711;50.108;13.712;2022-12-16T08:40:02;89.15;;;32.70;;
59830;SDS011;45711;50.108;13.712;2022-12-16T08:42:46;82.20;;;32.92;;
59830;SDS011;45711;50.108;13.712;2022-12-16T08:45:31;83.43;;;31.70;;
59830;SDS011;45711;50.108;13.712;2022-12-16T08:48:16;89.95;;;33.22;;
59830;SDS011;45711;50.108;13.712;2022-12-16T08:51:00;88.75;;;32.85;;
59830;SDS011;45711;50.108;13.712;2022-12-16T08:53:45;85.57;;;33.22;;
59830;SDS011;45711;50.108;13.712;2022-12-16T08:59:13;90.43;;;33.30;;
59830;SDS011;45711;50.108;13.712;2022-12-16T09:01:58;94.43;;;32.25;;
59830;SDS011;45711;50.108;13.712;2022-12-16T09:04:43;84.78;;;31.35;;
59830;SDS011;45711;50.108;13.712;2022-12-16T09:07:30;86.22;;;32.47;;
59830;SDS011;45711;50.108;13.712;2022-12-16T09:10:14;89.82;;;33.00;;
59830;SDS011;45711;50.108;13.712;2022-12-16T09:13:03;79.47;;;31.40;;
59830;SDS011;45711;50.108;13.712;2022-12-16T09:15:49;79.50;;;31.58;;
59830;SDS011;45711;50.108;13.712;2022-12-16T09:18:34;102.30;;;45.42;;
59830;SDS011;45711;50.108;13.712;2022-12-16T09:21:18;63.60;;;26.13;;
59830;SDS011;45711;50.108;13.712;2022-12-16T09:24:02;59.42;;;24.67;;
59830;SDS011;45711;50.108;13.712;2022-12-16T09:26:46;71.45;;;26.27;;
59830;SDS011;45711;50.108;13.712;2022-12-16T09:29:30;61.75;;;24.02;;
59830;SDS011;45711;50.108;13.712;2022-12-16T09:32:14;73.15;;;28.85;;
59830;SDS011;45711;50.108;13.712;2022-12-16T09:34:59;71.03;;;27.60;;
59830;SDS011;45711;50.108;13.712;2022-12-16T09:37:44;69.40;;;26.75;;
59830;SDS011;45711;50.108;13.712;2022-12-16T09:40:29;59.80;;;24.25;;
59830;SDS011;45711;50.108;13.712;2022-12-16T09:43:22;60.05;;;23.92;;
59830;SDS011;45711;50.108;13.712;2022-12-16T09:46:22;60.50;;;23.08;;
59830;SDS011;45711;50.108;13.712;2022-12-16T09:49:15;52.38;;;20.92;;
59830;SDS011;45711;50.108;13.712;2022-12-16T09:52:05;52.08;;;22.63;;
59830;SDS011;45711;50.108;13.712;2022-12-16T09:54:57;60.08;;;23.48;;
59830;SDS011;45711;50.108;13.712;2022-12-16T09:57:42;56.50;;;21.85;;
59830;SDS011;45711;50.108;13.712;2022-12-16T10:00:28;54.50;;;22.23;;
59830;SDS011;45711;50.108;13.712;2022-12-16T10:03:13;52.08;;;22.25;;
59830;SDS011;45711;50.108;13.712;2022-12-16T10:06:06;56.15;;;24.55;;
59830;SDS011;45711;50.108;13.712;2022-12-16T10:08:57;67.20;;;24.77;;
59830;SDS011;45711;50.108;13.712;2022-12-16T10:11:51;57.55;;;24.42;;
59830;SDS011;45711;50.108;13.712;2022-12-16T10:14:44;70.95;;;25.50;;
59830;SDS011;45711;50.108;13.712;2022-12-16T10:17:34;69.60;;;27.55;;
59830;SDS011;45711;50.108;13.712;2022-12-16T10:20:29;81.28;;;28.83;;
59830;SDS011;45711;50.108;13.712;2022-12-16T10:23:21;81.80;;;31.77;;
59830;SDS011;45711;50.108;13.712;2022-12-16T10:26:14;80.13;;;29.98;;
59830;SDS011;45711;50.108;13.712;2022-12-16T10:29:09;70.07;;;28.05;;
59830;SDS011;45711;50.108;13.712;2022-12-16T10:32:01;60.88;;;25.23;;
59830;SDS011;45711;50.108;13.712;2022-12-16T10:34:55;67.22;;;26.67;;
59830;SDS011;45711;50.108;13.712;2022-12-16T10:37:39;62.20;;;26.05;;
59830;SDS011;45711;50.108;13.712;2022-12-16T10:40:26;74.60;;;28.63;;
59830;SDS011;45711;50.108;13.712;2022-12-16T10:43:17;81.70;;;29.77;;
59830;SDS011;45711;50.108;13.712;2022-12-16T10:46:10;80.82;;;30.52;;
59830;SDS011;45711;50.108;13.712;2022-12-16T10:48:58;78.30;;;29.90;;
59830;SDS011;45711;50.108;13.712;2022-12-16T10:51:42;75.68;;;30.98;;
59830;SDS011;45711;50.108;13.712;2022-12-16T10:54:31;73.18;;;28.13;;
59830;SDS011;45711;50.108;13.712;2022-12-16T10:57:19;93.40;;;30.40;;
59830;SDS011;45711;50.108;13.712;2022-12-16T11:00:14;71.30;;;27.48;;
59830;SDS011;45711;50.108;13.712;2022-12-16T11:03:16;75.22;;;28.30;;
59830;SDS011;45711;50.108;13.712;2022-12-16T11:06:01;70.18;;;29.10;;
59830;SDS011;45711;50.108;13.712;2022-12-16T11:08:50;64.15;;;26.90;;
59830;SDS011;45711;50.108;13.712;2022-12-16T11:11:37;56.00;;;24.90;;
59830;SDS011;45711;50.108;13.712;2022-12-16T11:14:21;61.33;;;23.95;;
59830;SDS011;45711;50.108;13.712;2022-12-16T11:17:12;69.18;;;25.85;;
59830;SDS011;45711;50.108;13.712;2022-12-16T11:20:07;55.78;;;24.38;;
59830;SDS011;45711;50.108;13.712;2022-12-16T11:23:05;43.15;;;18.52;;
59830;SDS011;45711;50.108;13.712;2022-12-16T11:26:02;46.67;;;18.95;;
59830;SDS011;45711;50.108;13.712;2022-12-16T11:29:00;51.33;;;19.20;;
59830;SDS011;45711;50.108;13.712;2022-12-16T11:31:47;42.67;;;19.10;;
59830;SDS011;45711;50.108;13.712;2022-12-16T11:34:38;45.35;;;18.95;;
59830;SDS011;45711;50.108;13.712;2022-12-16T11:37:24;45.70;;;16.90;;
59830;SDS011;45711;50.108;13.712;2022-12-16T11:40:11;44.22;;;19.75;;
59830;SDS011;45711;50.108;13.712;2022-12-16T11:43:02;46.20;;;18.70;;
59830;SDS011;45711;50.108;13.712;2022-12-16T11:45:54;46.38;;;19.20;;
59830;SDS011;45711;50.108;13.712;2022-12-16T11:48:43;42.17;;;17.92;;
59830;SDS011;45711;50.108;13.712;2022-12-16T11:51:33;42.60;;;18.60;;
59830;SDS011;45711;50.108;13.712;2022-12-16T11:54:20;42.88;;;17.90;;
59830;SDS011;45711;50.108;13.712;2022-12-16T11:57:14;44.13;;;18.08;;
59830;SDS011;45711;50.108;13.712;2022-12-16T12:00:02;42.83;;;17.38;;
59830;SDS011;45711;50.108;13.712;2022-12-16T12:02:49;45.92;;;18.38;;
59830;SDS011;45711;50.108;13.712;2022-12-16T12:05:40;38.15;;;17.05;;
59830;SDS011;45711;50.108;13.712;2022-12-16T12:08:30;49.53;;;19.00;;
59830;SDS011;45711;50.108;13.712;2022-12-16T12:11:21;38.72;;;17.20;;
59830;SDS011;45711;50.108;13.712;2022-12-16T12:14:12;47.58;;;18.02;;
59830;SDS011;45711;50.108;13.712;2022-12-16T12:17:06;49.73;;;18.73;;
59830;SDS011;45711;50.108;13.712;2022-12-16T12:20:03;41.53;;;18.42;;
59830;SDS011;45711;50.108;13.712;2022-12-16T12:23:05;45.63;;;19.10;;
59830;SDS011;45711;50.108;13.712;2022-12-16T12:25:54;46.10;;;19.73;;
59830;SDS011;45711;50.108;13.712;2022-12-16T12:28:49;54.58;;;22.55;;
59830;SDS011;45711;50.108;13.712;2022-12-16T12:31:49;67.18;;;25.70;;
59830;SDS011;45711;50.108;13.712;2022-12-16T12:34:43;45.83;;;19.52;;
59830;SDS011;45711;50.108;13.712;2022-12-16T12:37:32;49.08;;;21.20;;
59830;SDS011;45711;50.108;13.712;2022-12-16T12:40:25;51.38;;;21.42;;
59830;SDS011;45711;50.108;13.712;2022-12-16T12:43:25;55.10;;;21.13;;
59830;SDS011;45711;50.108;13.712;2022-12-16T12:46:20;47.03;;;19.63;;
59830;SDS011;45711;50.108;13.712;2022-12-16T12:49:13;46.67;;;20.15;;
59830;SDS011;45711;50.108;13.712;2022-12-16T12:52:08;45.50;;;20.98;;
59830;SDS011;45711;50.108;13.712;2022-12-16T12:55:15;50.45;;;19.75;;
59830;SDS011;45711;50.108;13.712;2022-12-16T12:58:06;46.67;;;20.73;;
59830;SDS011;45711;50.108;13.712;2022-12-16T13:00:56;49.47;;;20.40;;
59830;SDS011;45711;50.108;13.712;2022-12-16T13:03:44;48.30;;;21.05;;
59830;SDS011;45711;50.108;13.712;2022-12-16T13:06:32;45.10;;;19.65;;
59830;SDS011;45711;50.108;13.712;2022-12-16T13:09:22;53.08;;;20.42;;
59830;SDS011;45711;50.108;13.712;2022-12-16T13:12:20;53.05;;;19.60;;
59830;SDS011;45711;50.108;13.712;2022-12-16T13:15:19;50.97;;;19.98;;
59830;SDS011;45711;50.108;13.712;2022-12-16T13:18:22;42.13;;;18.77;;
59830;SDS011;45711;50.108;13.712;2022-12-16T13:24:39;36.88;;;16.63;;
59830;SDS011;45711;50.108;13.712;2022-12-16T13:27:27;47.33;;;17.60;;
59830;SDS011;45711;50.108;13.712;2022-12-16T13:30:26;42.00;;;17.35;;
59830;SDS011;45711;50.108;13.712;2022-12-16T13:33:20;45.67;;;17.40;;
59830;SDS011;45711;50.108;13.712;2022-12-16T13:36:11;48.75;;;19.02;;
59830;SDS011;45711;50.108;13.712;2022-12-16T13:38:56;39.47;;;16.98;;
59830;SDS011;45711;50.108;13.712;2022-12-16T13:41:48;38.65;;;16.67;;
59830;SDS011;45711;50.108;13.712;2022-12-16T13:44:52;36.47;;;16.15;;
59830;SDS011;45711;50.108;13.712;2022-12-16T13:50:46;38.95;;;16.58;;
59830;SDS011;45711;50.108;13.712;2022-12-16T13:53:32;40.80;;;18.90;;
59830;SDS011;45711;50.108;13.712;2022-12-16T13:56:22;40.00;;;18.45;;
59830;SDS011;45711;50.108;13.712;2022-12-16T13:59:12;44.28;;;18.20;;
59830;SDS011;45711;50.108;13.712;2022-12-16T14:02:01;42.80;;;18.25;;
59830;SDS011;45711;50.108;13.712;2022-12-16T14:04:55;43.40;;;20.13;;
59830;SDS011;45711;50.108;13.712;2022-12-16T14:07:43;38.65;;;17.52;;
59830;SDS011;45711;50.108;13.712;2022-12-16T14:10:28;43.03;;;19.10;;
59830;SDS011;45711;50.108;13.712;2022-12-16T14:13:15;43.50;;;20.88;;
59830;SDS011;45711;50.108;13.712;2022-12-16T14:16:06;44.13;;;17.83;;
59830;SDS011;45711;50.108;13.712;2022-12-16T14:19:03;54.13;;;20.65;;
59830;SDS011;45711;50.108;13.712;2022-12-16T14:21:57;42.13;;;18.52;;
59830;SDS011;45711;50.108;13.712;2022-12-16T14:24:49;42.75;;;19.00;;
59830;SDS011;45711;50.108;13.712;2022-12-16T14:27:34;45.78;;;19.95;;
59830;SDS011;45711;50.108;13.712;2022-12-16T14:30:19;45.15;;;19.08;;
59830;SDS011;45711;50.108;13.712;2022-12-16T14:33:15;46.85;;;18.63;;
59830;SDS011;45711;50.108;13.712;2022-12-16T14:36:00;42.60;;;19.17;;
59830;SDS011;45711;50.108;13.712;2022-12-16T14:39:08;48.90;;;21.02;;
59830;SDS011;45711;50.108;13.712;2022-12-16T14:41:54;49.63;;;21.17;;
59830;SDS011;45711;50.108;13.712;2022-12-16T14:44:38;43.75;;;18.88;;
59830;SDS011;45711;50.108;13.712;2022-12-16T14:47:23;44.10;;;19.35;;
59830;SDS011;45711;50.108;13.712;2022-12-16T14:50:24;44.35;;;21.20;;
59830;SDS011;45711;50.108;13.712;2022-12-16T14:53:13;45.90;;;20.20;;
59830;SDS011;45711;50.108;13.712;2022-12-16T14:56:09;49.17;;;20.05;;
59830;SDS011;45711;50.108;13.712;2022-12-16T14:59:15;48.03;;;20.63;;
59830;SDS011;45711;50.108;13.712;2022-12-16T15:02:20;50.90;;;19.85;;
59830;SDS011;45711;50.108;13.712;2022-12-16T15:05:11;50.67;;;21.50;;
59830;SDS011;45711;50.108;13.712;2022-12-16T15:07:56;50.20;;;20.92;;
59830;SDS011;45711;50.108;13.712;2022-12-16T15:10:41;51.00;;;20.40;;
59830;SDS011;45711;50.108;13.712;2022-12-16T15:13:25;50.67;;;19.92;;
59830;SDS011;45711;50.108;13.712;2022-12-16T15:16:13;47.70;;;21.35;;
59830;SDS011;45711;50.108;13.712;2022-12-16T15:19:00;52.65;;;22.08;;
59830;SDS011;45711;50.108;13.712;2022-12-16T15:21:46;50.92;;;22.42;;
59830;SDS011;45711;50.108;13.712;2022-12-16T15:24:31;50.38;;;20.92;;
59830;SDS011;45711;50.108;13.712;2022-12-16T15:27:23;45.22;;;19.85;;
59830;SDS011;45711;50.108;13.712;2022-12-16T15:30:31;49.33;;;19.90;;
59830;SDS011;45711;50.108;13.712;2022-12-16T15:33:20;50.40;;;21.10;;
59830;SDS011;45711;50.108;13.712;2022-12-16T15:36:23;51.95;;;21.25;;
59830;SDS011;45711;50.108;13.712;2022-12-16T15:39:10;48.35;;;20.45;;
59830;SDS011;45711;50.108;13.712;2022-12-16T15:42:01;49.53;;;20.40;;
59830;SDS011;45711;50.108;13.712;2022-12-16T15:44:46;70.10;;;24.52;;
59830;SDS011;45711;50.108;13.712;2022-12-16T15:47:32;52.15;;;21.48;;
59830;SDS011;45711;50.108;13.712;2022-12-16T15:50:20;50.47;;;21.45;;